Latest Weather Observations for Hobart

IDT60801

Issued at 9:31 pm EDT Wednesday 10 February 2016 (issued every 30 minutes, with the page automatically refreshed every 10 minutes)

About weather observations | Map of weather stations | Latest weather observations for TAS | Other Formats
Station Details ID: 094029 Name: HOBART (ELLERSLIE ROAD) Lat: -42.89 Lon: 147.33 Height: 50.5 m
Data from the previous 72 hours. | See also: Recent months at Hobart
Date/Time
EDT
Temp
°C
App
Temp
°C
Dew
Point
Rel
Hum
%
Delta-T
°C
Wind Press
QNH
hPa
Press
MSL
hPa
Rain
since 9 am
mm
Dir
 
Spd
km/h
Gust
km/h
Spd
kts
Gust
kts
10/09:30pm 19.5 18.8 10.2 55 5.0 W 4 9 2 5 1012.8 1012.7 0.0
10/09:00pm 19.6 17.9 9.9 53 5.2 SW 9 13 5 7 1012.5 1012.4 0.0
10/08:30pm 20.1 19.5 10.3 53 5.3 W 4 6 2 3 1012.2 1012.1 0.0
10/08:00pm 21.3 19.1 9.4 46 6.4 NW 11 17 6 9 1011.8 1011.7 0.0
10/07:30pm 21.6 20.2 9.0 44 6.7 WNW 6 13 3 7 1011.6 1011.5 0.0
10/07:00pm 22.3 19.3 9.1 43 7.1 NW 15 22 8 12 1011.3 1011.2 0.0
10/06:30pm 23.0 19.1 8.6 39 7.7 NW 19 26 10 14 1011.1 1011.0 0.0
10/06:00pm 23.5 19.5 8.3 37 8.1 NW 19 28 10 15 1011.0 1010.9 0.0
10/05:30pm 22.3 18.3 9.1 43 7.1 WSW 20 32 11 17 1010.9 1010.8 0.0
10/05:00pm 22.2 19.6 9.4 44 6.9 NE 13 24 7 13 1010.8 1010.7 0.0
10/04:30pm 23.5 20.2 8.0 37 8.2 ESE 15 22 8 12 1010.7 1010.6 0.0
10/04:00pm 23.4 21.1 8.9 39 7.8 E 11 19 6 10 1010.9 1010.8 0.0
10/03:30pm 22.7 19.7 9.1 42 7.3 E 15 20 8 11 1011.1 1011.0 0.0
10/03:00pm 23.8 21.0 8.5 37 8.2 S 13 19 7 10 1011.1 1011.0 0.0
10/02:30pm 22.0 19.9 9.6 45 6.7 S 11 20 6 11 1011.5 1011.4 0.0
10/02:00pm 21.9 20.1 9.5 45 6.7 ENE 9 15 5 8 1011.5 1011.4 0.0
10/01:30pm 21.8 18.4 9.1 44 6.8 SE 17 20 9 11 1011.5 1011.4 0.0
10/01:00pm 21.1 18.2 8.3 43 6.7 E 13 19 7 10 1011.7 1011.6 0.0
10/12:30pm 21.3 17.3 8.4 43 6.8 SSE 19 24 10 13 1012.2 1012.1 0.0
10/12:15pm 22.5 19.2 8.1 39 7.6 S 15 41 8 22 1012.2 1012.1 0.0
10/12:00pm 21.2 18.4 8.7 44 6.6 E 13 17 7 9 1012.7 1012.6 0.0
10/11:30am 20.8 18.4 8.7 45 6.4 NNE 11 19 6 10 1012.9 1012.8 0.0
10/11:00am 20.7 18.2 8.3 45 6.5 N 11 19 6 10 1013.3 1013.2 0.0
10/10:30am 19.8 17.4 8.5 48 5.9 N 11 19 6 10 1013.3 1013.2 0.0
10/10:00am 19.1 16.3 8.5 50 5.5 NNW 13 20 7 11 1013.4 1013.3 0.0
10/09:30am 18.6 14.9 8.1 50 5.4 NNW 17 20 9 11 1013.4 1013.3 0.0
10/09:00am 18.2 15.1 8.8 54 4.9 N 15 20 8 11 1013.5 1013.4 0.0
10/08:30am 17.0 15.4 11.7 71 2.9 NNW 11 15 6 8 1013.7 1013.6 0.0
10/08:00am 16.3 15.6 11.5 73 2.6 NNE 6 9 3 5 1013.5 1013.4 0.0
10/07:30am 15.7 15.0 11.4 75 2.3 WNW 6 7 3 4 1013.6 1013.5 0.0
10/07:00am 14.8 13.9 11.4 80 1.8 WSW 7 9 4 5 1013.4 1013.3 0.0
10/06:30am 14.7 13.8 11.3 80 1.8 WSW 7 9 4 5 1013.3 1013.2 0.0
10/06:00am 15.0 13.5 10.4 74 2.4 WSW 9 13 5 7 1013.1 1013.0 0.0
10/05:30am 15.0 13.2 10.7 75 2.3 SW 11 13 6 7 1013.2 1013.1 0.0
10/05:00am 15.5 14.2 10.0 70 2.9 WSW 7 13 4 7 1013.0 1012.9 0.0
10/04:30am 15.8 12.7 9.0 64 3.5 SSW 15 20 8 11 1013.0 1012.9 0.0
10/04:00am 15.8 14.8 13.3 85 1.4 SW 11 15 6 8 1013.1 1013.0 0.0
10/03:30am 16.4 16.5 13.9 85 1.4 NW 6 9 3 5 1013.2 1013.1 0.0
10/03:00am 16.8 16.8 14.2 85 1.5 NW 7 11 4 6 1013.2 1013.1 0.0
10/02:30am 16.9 17.8 13.9 82 1.7 WNW 2 9 1 5 1013.4 1013.3 0.0
10/02:00am 16.8 18.1 14.0 83 1.6 CALM 0 0 0 0 1013.8 1013.7 0.0
10/01:30am 16.7 16.7 13.7 82 1.7 NNE 6 7 3 4 1014.1 1014.0 0.0
10/01:00am 17.0 16.5 13.8 81 1.8 NNE 9 9 5 5 1014.4 1014.3 0.0
10/12:30am 17.3 17.1 13.6 79 2.1 N 7 9 4 5 1014.6 1014.5 0.0
10/12:00am 17.6 18.7 13.5 77 2.3 CALM 0 0 0 0 1014.9 1014.8 0.0
 
Date/Time
EDT
Temp
°C
App
Temp
°C
Dew
Point
Rel
Hum
%
Delta-T
°C
Wind Press
QNH
hPa
Press
MSL
hPa
Rain
since 9 am
mm
Dir
 
Spd
km/h
Gust
km/h
Spd
kts
Gust
kts
09/11:30pm 17.5 18.6 13.6 78 2.2 CALM 0 6 0 3 1015.2 1015.1 0.0
09/11:00pm 17.7 17.1 13.5 76 2.4 S 9 13 5 7 1015.6 1015.5 0.0
09/10:30pm 17.7 17.1 13.6 77 2.3 SE 9 13 5 7 1015.6 1015.5 0.0
09/10:00pm 17.7 16.4 13.6 77 2.3 SSE 13 17 7 9 1015.8 1015.7 0.0
09/09:30pm 17.8 16.5 13.8 77 2.3 SSE 13 19 7 10 1015.9 1015.8 0.0
09/09:00pm 18.0 16.8 14.0 77 2.3 SSE 13 22 7 12 1015.7 1015.6 0.0
09/08:30pm 18.2 15.7 14.2 77 2.3 SE 20 28 11 15 1015.5 1015.4 0.0
09/08:00pm 18.8 16.6 14.3 75 2.6 SE 19 28 10 15 1015.4 1015.3 0.0
09/07:30pm 19.7 17.8 14.2 70 3.2 SSE 17 26 9 14 1015.1 1015.0 0.0
09/07:00pm 21.8 19.6 13.3 58 4.9 SSE 17 22 9 12 1014.9 1014.8 0.0
09/06:30pm 22.1 20.0 13.7 59 4.9 SE 17 24 9 13 1014.8 1014.7 0.0
09/06:00pm 22.8 20.5 13.1 54 5.6 SSE 17 24 9 13 1014.9 1014.8 0.0
09/05:30pm 23.1 20.5 13.2 53 5.7 SE 19 24 10 13 1015.1 1015.0 0.0
09/05:00pm 23.2 20.2 12.5 51 6.1 SSE 20 30 11 16 1015.5 1015.4 0.0
09/04:30pm 22.7 19.2 12.1 51 6.0 SE 22 30 12 16 1016.0 1015.9 0.0
09/04:00pm 22.9 19.6 11.5 48 6.4 SE 20 28 11 15 1016.2 1016.1 0.0
09/03:30pm 23.1 19.6 10.8 45 6.8 SSE 20 28 11 15 1016.6 1016.5 0.0
09/03:00pm 22.9 19.6 10.8 46 6.7 SE 19 30 10 16 1017.0 1016.9 0.0
09/02:30pm 22.4 18.1 10.8 47 6.4 SE 24 35 13 19 1017.4 1017.3 0.0
09/02:00pm 23.4 19.4 10.5 44 7.1 SE 22 30 12 16 1017.6 1017.5 0.0
09/01:30pm 23.8 19.8 9.2 39 7.9 ESE 20 28 11 15 1017.6 1017.5 0.0
09/01:00pm 26.9 23.1 5.9 26 10.9 N 15 24 8 13 1017.9 1017.8 0.0
09/12:30pm 24.7 20.2 6.0 30 9.6 NNW 19 26 10 14 1018.5 1018.4 0.0
09/12:00pm 24.0 19.6 6.5 32 9.0 NNW 19 28 10 15 1019.1 1019.0 0.0
09/11:30am 22.8 18.3 6.9 36 8.2 NNW 20 30 11 16 1019.6 1019.5 0.0
09/11:00am 22.6 19.6 7.9 39 7.7 N 13 17 7 9 1020.1 1020.0 0.0
09/10:30am 21.4 17.9 7.4 40 7.2 N 15 26 8 14 1020.5 1020.4 0.0
09/10:00am 21.1 17.9 8.3 43 6.7 N 15 22 8 12 1020.8 1020.7 0.0
09/09:30am 20.4 16.1 7.8 44 6.5 NNW 20 32 11 17 1020.9 1020.8 0.0
09/09:00am 20.0 15.8 8.2 46 6.1 NW 20 37 11 20 1021.0 1020.9 0.0
09/08:30am 18.3 14.4 8.6 53 5.0 NNW 19 26 10 14 1021.3 1021.2 0.0
09/08:00am 17.4 14.7 8.9 57 4.4 NNW 13 20 7 11 1021.2 1021.1 0.0
09/07:30am 16.1 14.6 9.1 63 3.6 NNW 7 13 4 7 1021.3 1021.2 0.0
09/07:00am 14.7 13.2 9.0 68 2.9 WNW 7 9 4 5 1021.3 1021.2 0.0
09/06:30am 13.8 11.5 9.1 73 2.4 W 11 13 6 7 1021.0 1020.9 0.0
09/06:00am 14.4 12.9 9.1 70 2.7 WSW 7 11 4 6 1020.7 1020.6 0.0
09/05:30am 14.5 12.3 9.4 71 2.6 WSW 11 15 6 8 1020.5 1020.4 0.0
09/05:00am 15.5 14.0 9.3 66 3.2 S 7 9 4 5 1020.4 1020.3 0.0
09/04:30am 15.5 14.1 9.5 67 3.1 SW 7 9 4 5 1020.4 1020.3 0.0
09/04:00am 16.3 14.5 9.6 64 3.5 W 9 13 5 7 1020.4 1020.3 0.0
09/03:30am 16.9 13.6 9.4 61 3.9 W 17 22 9 12 1020.2 1020.1 0.0
09/03:00am 17.5 15.6 9.2 58 4.3 WNW 9 15 5 8 1020.6 1020.5 0.0
09/02:30am 17.6 16.5 9.8 60 4.1 WSW 6 9 3 5 1020.7 1020.6 0.0
09/02:00am 17.9 14.1 9.1 56 4.6 NW 19 28 10 15 1020.6 1020.5 0.0
09/01:30am 18.2 14.7 8.7 54 4.9 NW 17 24 9 13 1020.7 1020.6 0.0
09/01:00am 18.4 14.8 8.5 52 5.1 NW 17 24 9 13 1021.0 1020.9 0.0
09/12:30am 18.6 15.4 8.5 52 5.2 NW 15 24 8 13 1021.0 1020.9 0.0
09/12:00am 18.7 14.7 8.2 50 5.4 NW 19 24 10 13 1021.1 1021.0 0.0
 
Date/Time
EDT
Temp
°C
App
Temp
°C
Dew
Point
Rel
Hum
%
Delta-T
°C
Wind Press
QNH
hPa
Press
MSL
hPa
Rain
since 9 am
mm
Dir
 
Spd
km/h
Gust
km/h
Spd
kts
Gust
kts
08/11:30pm 18.8 15.1 8.1 49 5.5 NW 17 24 9 13 1021.1 1021.0 0.0
08/11:00pm 18.8 14.6 7.3 47 5.8 NW 19 26 10 14 1021.1 1021.0 0.0
08/10:30pm 18.9 15.4 7.0 46 6.0 NW 15 24 8 13 1021.2 1021.1 0.0
08/10:00pm 18.9 16.5 7.0 46 6.0 WSW 9 24 5 13 1021.1 1021.0 0.0
08/09:30pm 18.9 15.0 7.2 46 5.9 WSW 17 26 9 14 1020.7 1020.6 0.0
08/09:00pm 19.3 14.1 7.3 45 6.1 SW 24 41 13 22 1020.1 1020.0 0.0
08/08:30pm 20.0 15.2 7.5 44 6.4 SW 22 32 12 17 1019.6 1019.5 0.0
08/08:00pm 21.0 15.8 7.1 40 7.1 SW 24 32 13 17 1019.2 1019.1 0.0
08/07:30pm 22.4 17.5 6.8 36 8.0 WSW 22 30 12 16 1018.5 1018.4 0.0
08/07:00pm 23.1 17.7 6.2 33 8.6 SW 24 39 13 21 1018.0 1017.9 0.0
08/06:31pm 23.7 17.2 6.6 33 8.8 SW 30 48 16 26 1017.5 1017.4 0.0
08/06:30pm 23.7 16.8 6.6 33 8.8 SW 32 48 17 26 1017.5 1017.4 0.0
08/06:00pm 24.5 17.0 6.5 31 9.3 SW 35 50 19 27 1017.2 1017.1 0.0
08/05:47pm 24.9 18.0 6.3 30 9.6 SW 32 50 17 27 1017.2 1017.1 0.0
08/05:30pm 25.6 20.3 6.9 30 9.8 SW 24 41 13 22 1017.1 1017.0 0.0
08/05:00pm 24.7 23.5 9.5 38 8.3 SE 6 19 3 10 1017.1 1017.0 0.0
08/04:30pm 23.4 20.3 12.3 49 6.3 E 20 30 11 16 1017.1 1017.0 0.0
08/04:00pm 22.4 18.8 11.9 51 5.9 E 22 30 12 16 1017.2 1017.1 0.0
08/03:30pm 22.3 19.0 12.9 55 5.4 ESE 22 33 12 18 1017.1 1017.0 0.0
08/03:00pm 23.5 19.7 12.3 49 6.4 ESE 24 32 13 17 1017.2 1017.1 0.0
08/02:30pm 24.8 21.1 7.8 33 9.0 E 17 22 9 12 1017.2 1017.1 0.0
08/02:00pm 26.6 23.7 8.0 30 10.0 NE 13 22 7 12 1017.4 1017.3 0.0
08/01:30pm 24.5 21.7 8.4 36 8.6 ESE 13 17 7 9 1017.5 1017.4 0.0
08/01:00pm 23.9 20.8 8.8 38 8.1 ESE 15 20 8 11 1017.6 1017.5 0.0
08/12:30pm 23.6 20.2 9.1 39 7.8 E 17 20 9 11 1017.7 1017.6 0.0
08/12:00pm 23.2 20.3 9.8 42 7.3 ESE 15 19 8 10 1017.9 1017.8 0.0
08/11:30am 23.2 20.2 10.7 45 6.9 SE 17 22 9 12 1018.0 1017.9 0.0
08/11:00am 22.3 19.0 9.7 44 6.8 SE 17 24 9 13 1018.3 1018.2 0.0
08/10:30am 21.8 20.1 9.8 46 6.5 ESE 9 13 5 7 1018.3 1018.2 0.0
08/10:00am 21.6 19.7 11.8 53 5.5 ESE 13 19 7 10 1018.1 1018.0 0.0
08/09:30am 21.3 20.3 12.4 57 5.0 ESE 9 13 5 7 1018.5 1018.4 0.0
08/09:00am 20.0 19.1 13.7 67 3.6 E 11 13 6 7 1018.6 1018.5 0.0
08/08:30am 19.5 19.1 14.1 71 3.1 E 9 13 5 7 1018.4 1018.3 0.0
08/08:00am 19.3 20.1 14.7 74 2.7 SSE 4 7 2 4 1018.3 1018.2 0.0
08/07:30am 17.1 16.9 13.0 77 2.3 WSW 6 9 3 5 1018.0 1017.9 0.0
08/07:00am 16.1 15.4 13.2 83 1.6 WSW 9 11 5 6 1017.8 1017.7 0.0
08/06:30am 15.7 15.1 13.4 86 1.3 W 9 11 5 6 1017.4 1017.3 0.0
08/06:00am 16.0 15.6 14.1 88 1.1 WSW 9 15 5 8 1017.2 1017.1 0.0
08/05:30am 16.7 16.5 14.8 88 1.1 W 9 13 5 7 1017.2 1017.1 0.0
08/05:00am 16.8 16.4 15.1 90 1.0 WNW 11 17 6 9 1016.9 1016.8 0.0
08/04:30am 17.1 17.5 15.2 88 1.1 W 7 9 4 5 1016.8 1016.7 0.0
08/04:00am 17.6 18.0 15.4 87 1.3 W 7 11 4 6 1016.9 1016.8 0.0
08/03:30am 17.8 18.3 15.6 87 1.3 WSW 7 7 4 4 1017.1 1017.0 0.0
08/03:00am 18.0 19.2 15.8 87 1.3 WNW 4 7 2 4 1017.2 1017.1 0.0
08/02:30am 18.0 18.7 15.6 86 1.4 W 6 7 3 4 1017.5 1017.4 0.0
08/02:00am 18.1 18.7 15.7 86 1.4 W 7 7 4 4 1017.6 1017.5 0.0
08/01:30am 18.4 19.1 15.7 84 1.6 SW 6 9 3 5 1018.0 1017.9 0.0
08/01:00am 18.5 19.9 15.3 81 1.9 NW 2 7 1 4 1018.0 1017.9 0.0
08/12:30am 18.4 18.8 15.2 81 1.9 SW 7 11 4 6 1018.2 1018.1 0.0
08/12:00am 18.4 18.3 15.0 80 2.0 SW 9 13 5 7 1018.2 1018.1 0.0
 
Date/Time
EDT
Temp
°C
App
Temp
°C
Dew
Point
Rel
Hum
%
Delta-T
°C
Wind Press
QNH
hPa
Press
MSL
hPa
Rain
since 9 am
mm
Dir
 
Spd
km/h
Gust
km/h
Spd
kts
Gust
kts
07/11:30pm 18.3 18.6 15.0 81 1.9 SW 7 11 4 6 1018.3 1018.2 0.0
07/11:00pm 18.7 19.0 14.6 77 2.4 SW 6 13 3 7 1018.5 1018.4 0.0
07/10:30pm 18.7 17.6 14.2 75 2.6 SSW 13 19 7 10 1018.6 1018.5 0.0
07/10:00pm 18.7 17.3 14.4 76 2.5 SSW 15 24 8 13 1018.5 1018.4 0.0

Other Formats:

Comma delimited format used in spreadsheet applications
http://www.bom.gov.au/fwo/IDT60801/IDT60801.94970.axf

JavaScript Object Notation format (JSON) in row-major order
http://www.bom.gov.au/fwo/IDT60801/IDT60801.94970.json